createdAt,value
2022-08-04T00:00:02.413Z,17.74
2022-08-04T00:02:33.862Z,17.54
2022-08-04T00:05:05.372Z,17.58
2022-08-04T00:07:44.711Z,17.58
2022-08-04T00:10:07.639Z,17.55
2022-08-04T00:12:39.767Z,17.48
2022-08-04T00:15:10.322Z,17.43
2022-08-04T00:17:47.986Z,17.43
2022-08-04T00:20:18.490Z,17.40
2022-08-04T00:22:48.131Z,17.25
2022-08-04T00:25:17.221Z,17.24
2022-08-04T00:27:47.130Z,17.25
2022-08-04T00:30:16.127Z,17.20
2022-08-04T00:32:45.028Z,17.18
2022-08-04T00:35:17.106Z,17.18
2022-08-04T00:37:47.420Z,17.17
2022-08-04T00:40:21.965Z,17.13
2022-08-04T00:42:59.188Z,17.00
2022-08-04T00:46:14.148Z,17.04
2022-08-04T00:48:11.161Z,17.01
2022-08-04T00:50:44.390Z,17.01
2022-08-04T00:53:26.769Z,16.99
2022-08-04T00:56:15.070Z,17.01
2022-08-04T00:58:45.322Z,16.96
2022-08-04T01:01:15.697Z,16.83
2022-08-04T01:03:45.981Z,16.88
2022-08-04T01:06:19.032Z,16.84
2022-08-04T01:08:55.067Z,16.80
2022-08-04T01:11:28.073Z,16.82
2022-08-04T01:13:59.489Z,16.80
2022-08-04T01:16:28.604Z,16.82
2022-08-04T01:19:04.896Z,16.80
2022-08-04T01:21:47.351Z,16.81
2022-08-04T01:24:17.624Z,16.80
2022-08-04T01:26:58.702Z,16.81
2022-08-04T01:29:29.388Z,16.80
2022-08-04T01:32:00.839Z,16.74
2022-08-04T01:34:31.117Z,16.71
2022-08-04T01:37:01.404Z,16.68
2022-08-04T01:39:44.530Z,16.64
2022-08-04T01:42:22.514Z,16.60
2022-08-04T01:44:46.263Z,16.60
2022-08-04T01:47:16.505Z,16.55
2022-08-04T01:49:47.701Z,16.51
2022-08-04T01:52:17.941Z,16.47
2022-08-04T01:54:47.185Z,16.43
2022-08-04T01:57:38.244Z,16.47
2022-08-04T01:59:49.809Z,16.50
2022-08-04T02:02:18.764Z,16.47
2022-08-04T02:04:47.565Z,16.41
2022-08-04T02:07:34.218Z,16.40
2022-08-04T02:10:11.372Z,16.37
2022-08-04T02:12:42.659Z,16.33
2022-08-04T02:15:13.004Z,16.35
2022-08-04T02:17:43.755Z,16.35
2022-08-04T02:20:16.976Z,16.34
2022-08-04T02:22:50.340Z,16.27
2022-08-04T02:25:20.593Z,16.24
2022-08-04T02:28:00.335Z,16.24
2022-08-04T02:30:26.097Z,16.15
2022-08-04T02:32:57.271Z,16.17
2022-08-04T02:35:47.900Z,16.16
2022-08-04T02:38:36.455Z,16.18
2022-08-04T02:41:06.837Z,16.15
2022-08-04T02:43:52.105Z,16.11
2022-08-04T02:46:17.876Z,16.11
2022-08-04T02:48:39.166Z,16.10
2022-08-04T02:51:07.955Z,16.05
2022-08-04T02:53:39.205Z,16.05
2022-08-04T02:56:08.522Z,16.02
2022-08-04T02:58:39.360Z,16.02
2022-08-04T03:01:09.188Z,15.99
2022-08-04T03:03:43.417Z,15.99
2022-08-04T03:06:13.740Z,15.99
2022-08-04T03:09:00.434Z,15.98
2022-08-04T03:11:45.552Z,15.98
2022-08-04T03:14:35.691Z,15.96
2022-08-04T03:17:06.586Z,15.87
2022-08-04T03:19:53.236Z,15.73
2022-08-04T03:22:59.787Z,15.73
2022-08-04T03:25:26.065Z,15.61
2022-08-04T03:28:08.426Z,15.65
2022-08-04T03:30:44.824Z,15.63
2022-08-04T03:33:26.932Z,15.62
2022-08-04T03:36:00.139Z,15.54
2022-08-04T03:38:54.798Z,15.54
2022-08-04T03:41:54.849Z,15.50
2022-08-04T03:44:02.675Z,15.47
2022-08-04T03:46:32.941Z,15.50
2022-08-04T03:49:03.175Z,15.49
2022-08-04T03:51:51.129Z,15.53
2022-08-04T03:54:21.389Z,15.57
2022-08-04T03:56:51.632Z,15.58
2022-08-04T03:59:37.087Z,15.63
2022-08-04T04:02:07.603Z,15.72
2022-08-04T04:04:53.190Z,15.91
2022-08-04T04:07:41.362Z,16.07
2022-08-04T04:10:31.494Z,16.33
2022-08-04T04:13:07.612Z,16.57
2022-08-04T04:15:47.077Z,16.72
2022-08-04T04:18:27.791Z,16.77
2022-08-04T04:21:13.287Z,16.82
2022-08-04T04:23:43.586Z,16.87
2022-08-04T04:26:31.575Z,16.90
2022-08-04T04:29:04.513Z,16.91
2022-08-04T04:31:36.423Z,16.96
2022-08-04T04:34:06.694Z,16.98
2022-08-04T04:36:42.945Z,17.03
2022-08-04T04:39:16.192Z,17.09
2022-08-04T04:42:02.906Z,17.21
2022-08-04T04:44:33.229Z,17.29
2022-08-04T04:47:03.485Z,17.43
2022-08-04T04:49:33.729Z,17.60
2022-08-04T04:52:04.259Z,17.80
2022-08-04T04:54:40.546Z,18.00
2022-08-04T04:57:13.857Z,18.26
2022-08-04T04:59:47.487Z,18.67
2022-08-04T05:02:23.749Z,19.06
2022-08-04T05:05:00.133Z,19.51
2022-08-04T05:07:50.310Z,20.10
2022-08-04T05:10:37.623Z,20.38
2022-08-04T05:14:34.916Z,20.64
2022-08-04T05:15:49.454Z,21.13
2022-08-04T05:18:19.697Z,21.26
2022-08-04T05:20:51.928Z,21.52
2022-08-04T05:23:22.160Z,21.73
2022-08-04T05:25:59.918Z,21.79
2022-08-04T05:28:30.995Z,22.27
2022-08-04T05:31:04.016Z,22.38
2022-08-04T05:33:36.915Z,22.53
2022-08-04T05:36:18.503Z,22.36
2022-08-04T05:38:40.341Z,22.43
2022-08-04T05:41:09.998Z,22.49
2022-08-04T05:43:41.344Z,22.89
2022-08-04T05:46:10.906Z,23.02
2022-08-04T05:48:41.041Z,23.49
2022-08-04T05:51:11.041Z,23.71
2022-08-04T05:53:41.714Z,23.92
2022-08-04T05:56:12.047Z,23.95
2022-08-04T05:58:41.227Z,24.06
2022-08-04T06:01:11.955Z,24.37
2022-08-04T06:03:41.095Z,24.18
2022-08-04T06:06:11.309Z,24.35
2022-08-04T06:08:40.135Z,24.34
2022-08-04T06:11:11.518Z,24.25
2022-08-04T06:13:50.611Z,24.62
2022-08-04T06:16:29.988Z,24.95
2022-08-04T06:20:00.175Z,24.73
2022-08-04T06:21:22.856Z,24.96
2022-08-04T06:23:53.722Z,24.88
2022-08-04T06:26:22.992Z,25.05
2022-08-04T06:28:53.519Z,25.14
2022-08-04T06:32:31.059Z,25.47
2022-08-04T06:34:13.133Z,25.76
2022-08-04T06:36:42.642Z,25.69
2022-08-04T06:39:12.903Z,25.90
2022-08-04T06:41:55.253Z,25.86
2022-08-04T06:44:16.360Z,25.73
2022-08-04T06:46:45.270Z,25.54
2022-08-04T06:49:14.869Z,25.65
2022-08-04T06:51:49.436Z,25.80
2022-08-04T06:54:14.572Z,25.99
2022-08-04T06:56:45.421Z,26.05
2022-08-04T06:59:15.030Z,26.01
2022-08-04T07:01:44.319Z,26.12
2022-08-04T07:04:13.259Z,25.88
2022-08-04T07:06:42.376Z,26.12
2022-08-04T07:09:11.442Z,26.33
2022-08-04T07:11:44.714Z,26.42
2022-08-04T07:14:12.247Z,26.52
2022-08-04T07:16:42.827Z,26.45
2022-08-04T07:19:13.823Z,26.50
2022-08-04T07:21:42.112Z,26.17
2022-08-04T07:24:12.586Z,26.55
2022-08-04T07:26:41.324Z,26.75
2022-08-04T07:29:11.597Z,26.54
2022-08-04T07:31:40.408Z,26.75
2022-08-04T07:34:11.491Z,26.79
2022-08-04T07:36:43.553Z,26.79
2022-08-04T07:39:11.767Z,27.01
2022-08-04T07:41:45.132Z,26.97
2022-08-04T07:44:17.136Z,26.81
2022-08-04T07:46:47.383Z,27.09
2022-08-04T07:49:55.275Z,27.12
2022-08-04T07:51:46.725Z,27.39
2022-08-04T07:54:16.096Z,27.30
2022-08-04T07:56:45.725Z,27.40
2022-08-04T07:59:16.276Z,27.46
2022-08-04T08:01:45.208Z,27.57
2022-08-04T08:04:15.364Z,27.69
2022-08-04T08:06:44.258Z,27.52
2022-08-04T08:09:14.950Z,27.89
2022-08-04T08:12:36.714Z,28.09
2022-08-04T08:14:16.956Z,28.42
2022-08-04T08:16:45.920Z,28.58
2022-08-04T08:19:14.735Z,28.22
2022-08-04T08:21:59.036Z,27.97
2022-08-04T08:24:16.370Z,28.45
2022-08-04T08:26:45.238Z,28.48
2022-08-04T08:29:14.124Z,28.92
2022-08-04T08:31:56.421Z,29.09
2022-08-04T08:34:15.114Z,28.99
2022-08-04T08:36:46.998Z,29.16
2022-08-04T08:39:33.668Z,28.83
2022-08-04T08:42:19.176Z,29.17
2022-08-04T08:44:49.468Z,29.05
2022-08-04T08:47:19.930Z,29.19
2022-08-04T08:50:07.142Z,29.29
2022-08-04T08:53:00.942Z,29.55
2022-08-04T08:55:41.112Z,29.53
2022-08-04T08:58:14.535Z,29.39
2022-08-04T09:00:44.788Z,29.34
2022-08-04T09:03:15.213Z,29.78
2022-08-04T09:05:51.564Z,30.05
2022-08-04T09:08:22.179Z,30.50
2022-08-04T09:10:52.685Z,30.73
2022-08-04T09:13:28.994Z,30.78
2022-08-04T09:16:02.389Z,30.58
2022-08-04T09:18:49.381Z,30.90
2022-08-04T09:21:32.539Z,31.23
2022-08-04T09:24:35.540Z,31.06
2022-08-04T09:26:43.565Z,30.79
2022-08-04T09:29:16.709Z,31.25
2022-08-04T09:32:07.211Z,31.34
2022-08-04T09:34:25.086Z,31.15
2022-08-04T09:37:09.183Z,31.52
2022-08-04T09:39:45.150Z,31.35
2022-08-04T09:42:25.686Z,31.25
2022-08-04T09:45:06.058Z,31.30
2022-08-04T09:47:51.989Z,31.34
2022-08-04T09:50:37.072Z,31.19
2022-08-04T09:53:23.816Z,31.03
2022-08-04T09:56:06.237Z,30.75
2022-08-04T09:58:37.256Z,31.07
2022-08-04T10:01:13.792Z,31.02
2022-08-04T10:03:44.028Z,31.33
2022-08-04T10:06:23.318Z,31.24
2022-08-04T10:09:10.231Z,31.87
2022-08-04T10:11:55.778Z,31.46
2022-08-04T10:14:12.316Z,31.41
2022-08-04T10:16:48.460Z,31.60
2022-08-04T10:19:21.716Z,31.73
2022-08-04T10:21:59.720Z,32.07
2022-08-04T10:24:28.691Z,31.80
2022-08-04T10:27:05.225Z,32.14
2022-08-04T10:29:41.882Z,31.93
2022-08-04T10:32:21.991Z,31.58
2022-08-04T10:35:12.037Z,31.83
2022-08-04T10:37:58.955Z,31.69
2022-08-04T10:40:38.253Z,31.30
2022-08-04T10:43:21.963Z,31.85
2022-08-04T10:45:47.343Z,32.38
2022-08-04T10:48:34.271Z,32.35
2022-08-04T10:50:57.099Z,32.81
2022-08-04T10:53:25.798Z,32.42
2022-08-04T10:56:06.450Z,32.05
2022-08-04T10:58:46.932Z,31.80
2022-08-04T11:00:59.819Z,32.17
2022-08-04T11:03:30.041Z,32.37
2022-08-04T11:05:59.362Z,31.92
2022-08-04T11:08:31.604Z,32.15
2022-08-04T11:11:02.139Z,32.30
2022-08-04T11:13:32.389Z,32.94
2022-08-04T11:16:02.679Z,32.74
2022-08-04T11:18:33.436Z,32.58
2022-08-04T11:21:06.334Z,32.41
2022-08-04T11:23:36.576Z,32.11
2022-08-04T11:26:13.872Z,32.43
2022-08-04T11:29:03.973Z,32.39
2022-08-04T11:31:32.418Z,32.35
2022-08-04T11:34:08.689Z,33.00
2022-08-04T11:36:44.709Z,32.56
2022-08-04T11:39:17.898Z,32.63
2022-08-04T11:41:55.049Z,32.37
2022-08-04T11:44:25.570Z,32.07
2022-08-04T11:46:55.929Z,32.13
2022-08-04T11:49:29.162Z,32.66
2022-08-04T11:51:59.479Z,32.30
2022-08-04T11:54:28.222Z,32.58
2022-08-04T11:56:57.683Z,32.87
2022-08-04T11:59:27.930Z,32.87
2022-08-04T12:02:20.846Z,33.25
2022-08-04T12:04:54.460Z,33.48
2022-08-04T12:07:41.852Z,33.38
2022-08-04T12:10:41.406Z,33.68
2022-08-04T12:13:12.378Z,33.57
2022-08-04T12:15:46.607Z,33.20
2022-08-04T12:18:16.835Z,33.67
2022-08-04T12:20:48.795Z,33.20
2022-08-04T12:23:25.522Z,33.05
2022-08-04T12:25:55.798Z,32.76
2022-08-04T12:28:26.084Z,32.82
2022-08-04T12:31:01.239Z,33.20
2022-08-04T12:33:41.594Z,32.68
2022-08-04T12:36:19.185Z,32.65
2022-08-04T12:38:47.646Z,32.70
2022-08-04T12:41:17.919Z,32.82
2022-08-04T12:43:47.382Z,33.36
2022-08-04T12:46:23.828Z,33.58
2022-08-04T12:48:53.310Z,33.21
2022-08-04T12:51:57.950Z,32.75
2022-08-04T12:53:58.272Z,33.05
2022-08-04T12:56:28.869Z,33.16
2022-08-04T12:59:04.985Z,33.19
2022-08-04T13:02:10.206Z,33.66
2022-08-04T13:04:07.264Z,33.83
2022-08-04T13:06:37.011Z,33.71
2022-08-04T13:09:09.343Z,34.07
2022-08-04T13:11:42.112Z,33.69
2022-08-04T13:14:26.680Z,33.71
2022-08-04T13:16:46.508Z,33.36
2022-08-04T13:19:15.248Z,33.69
2022-08-04T13:21:50.270Z,33.78
2022-08-04T13:24:21.247Z,33.72
2022-08-04T13:27:03.291Z,33.69
2022-08-04T13:29:59.660Z,33.33
2022-08-04T13:32:14.454Z,33.14
2022-08-04T13:34:48.921Z,33.41
2022-08-04T13:37:20.791Z,33.20
2022-08-04T13:39:55.136Z,33.39
2022-08-04T13:42:17.803Z,33.59
2022-08-04T13:44:48.812Z,33.05
2022-08-04T13:47:22.885Z,32.77
2022-08-04T13:50:12.135Z,33.13
2022-08-04T13:52:45.059Z,33.11
2022-08-04T13:55:24.548Z,32.81
2022-08-04T13:57:57.552Z,32.99
2022-08-04T14:00:33.397Z,32.60
2022-08-04T14:03:02.594Z,32.37
2022-08-04T14:05:36.952Z,32.24
2022-08-04T14:08:06.722Z,32.51
2022-08-04T14:10:37.098Z,32.40
2022-08-04T14:13:07.187Z,32.58
2022-08-04T14:16:01.455Z,32.54
2022-08-04T14:18:20.066Z,32.37
2022-08-04T14:21:06.946Z,32.57
2022-08-04T14:23:47.556Z,32.65
2022-08-04T14:26:18.303Z,32.96
2022-08-04T14:29:25.404Z,32.93
2022-08-04T14:31:19.350Z,33.12
2022-08-04T14:34:01.918Z,33.02
2022-08-04T14:36:22.441Z,32.71
2022-08-04T14:38:51.591Z,33.19
2022-08-04T14:41:29.787Z,33.15
2022-08-04T14:43:59.799Z,32.99
2022-08-04T14:46:30.338Z,32.84
2022-08-04T14:49:04.304Z,32.80
2022-08-04T14:51:36.618Z,32.58
2022-08-04T14:54:08.957Z,32.72
2022-08-04T14:56:46.706Z,32.34
2022-08-04T14:59:09.586Z,32.45
2022-08-04T15:01:43.751Z,32.78
2022-08-04T15:04:13.307Z,32.33
2022-08-04T15:06:42.404Z,32.56
2022-08-04T15:09:11.896Z,32.91
2022-08-04T15:11:44.658Z,33.21
2022-08-04T15:14:36.190Z,32.93
2022-08-04T15:16:53.876Z,33.09
2022-08-04T15:19:15.395Z,32.95
2022-08-04T15:21:44.399Z,32.57
2022-08-04T15:24:14.568Z,33.10
2022-08-04T15:26:44.815Z,33.38
2022-08-04T15:29:16.799Z,33.41
2022-08-04T15:32:06.428Z,33.18
2022-08-04T15:34:23.411Z,33.17
2022-08-04T15:36:57.237Z,33.14
2022-08-04T15:39:42.743Z,33.27
2022-08-04T15:42:21.277Z,32.81
2022-08-04T15:44:48.977Z,32.77
2022-08-04T15:47:17.928Z,32.84
2022-08-04T15:49:46.714Z,32.95
2022-08-04T15:52:18.330Z,32.40
2022-08-04T15:54:52.757Z,32.56
2022-08-04T15:57:18.037Z,32.24
2022-08-04T16:00:03.284Z,32.64
2022-08-04T16:02:43.684Z,32.51
2022-08-04T16:05:18.659Z,32.32
2022-08-04T16:07:56.302Z,32.12
2022-08-04T16:10:34.172Z,32.27
2022-08-04T16:13:07.316Z,32.28
2022-08-04T16:15:37.569Z,32.15
2022-08-04T16:18:13.812Z,32.26
2022-08-04T16:20:38.669Z,31.83
2022-08-04T16:23:37.309Z,31.73
2022-08-04T16:25:51.212Z,31.69
2022-08-04T16:28:37.980Z,31.94
2022-08-04T16:31:07.568Z,31.83
2022-08-04T16:33:43.822Z,31.74
2022-08-04T16:36:10.620Z,31.66
2022-08-04T16:38:57.813Z,31.42
2022-08-04T16:41:43.770Z,31.33
2022-08-04T16:44:52.129Z,31.30
2022-08-04T16:47:22.213Z,31.21
2022-08-04T16:49:34.468Z,31.19
2022-08-04T16:52:09.431Z,30.96
2022-08-04T16:54:38.034Z,31.26
2022-08-04T16:57:10.510Z,30.76
2022-08-04T16:59:40.225Z,30.91
2022-08-04T17:02:10.233Z,30.85
2022-08-04T17:04:39.341Z,30.80
2022-08-04T17:07:09.821Z,30.82
2022-08-04T17:09:38.713Z,30.77
2022-08-04T17:12:07.587Z,30.82
2022-08-04T17:14:36.476Z,30.51
2022-08-04T17:17:08.925Z,30.52
2022-08-04T17:19:36.363Z,30.37
2022-08-04T17:22:10.219Z,30.21
2022-08-04T17:24:40.675Z,30.27
2022-08-04T17:28:08.931Z,30.33
2022-08-04T17:29:45.236Z,30.12
2022-08-04T17:32:16.166Z,30.17
2022-08-04T17:34:46.403Z,30.05
2022-08-04T17:39:49.172Z,29.97
2022-08-04T17:42:31.318Z,29.84
2022-08-04T17:45:41.470Z,29.82
2022-08-04T17:47:39.350Z,29.87
2022-08-04T17:50:11.505Z,29.58
2022-08-04T17:52:45.511Z,29.29
2022-08-04T17:55:16.389Z,29.27
2022-08-04T17:57:41.842Z,29.16
2022-08-04T18:00:19.343Z,28.95
2022-08-04T18:02:44.258Z,28.84
2022-08-04T18:05:16.133Z,28.73
2022-08-04T18:08:38.344Z,28.59
2022-08-04T18:10:30.899Z,28.42
2022-08-04T18:12:47.120Z,28.40
2022-08-04T18:15:23.037Z,28.35
2022-08-04T18:18:22.624Z,28.23
2022-08-04T18:20:25.880Z,28.11
2022-08-04T18:22:55.289Z,28.02
2022-08-04T18:25:50.317Z,27.88
2022-08-04T18:27:57.091Z,27.74
2022-08-04T18:30:38.196Z,27.61
2022-08-04T18:33:10.570Z,27.71
2022-08-04T18:36:34.198Z,27.55
2022-08-04T18:38:07.126Z,27.42
2022-08-04T18:40:42.078Z,27.33
2022-08-04T18:43:06.114Z,27.00
2022-08-04T18:45:35.277Z,27.06
2022-08-04T18:48:14.522Z,26.98
2022-08-04T18:51:10.142Z,26.82
2022-08-04T18:53:05.782Z,26.70
2022-08-04T18:55:57.017Z,26.53
2022-08-04T18:58:13.628Z,26.46
2022-08-04T19:00:45.142Z,26.24
2022-08-04T19:03:11.451Z,26.04
2022-08-04T19:05:41.850Z,25.83
2022-08-04T19:10:41.175Z,25.56
2022-08-04T19:13:25.290Z,25.41
2022-08-04T19:15:41.714Z,25.31
2022-08-04T19:18:12.126Z,25.04
2022-08-04T19:20:42.486Z,24.96
2022-08-04T19:24:27.515Z,24.78
2022-08-04T19:25:59.060Z,24.63
2022-08-04T19:28:19.342Z,24.40
2022-08-04T19:30:49.705Z,24.35
2022-08-04T19:33:20.222Z,24.22
2022-08-04T19:35:50.968Z,24.04
2022-08-04T19:38:20.977Z,24.00
2022-08-04T19:43:23.009Z,23.82
2022-08-04T19:45:52.973Z,23.70
2022-08-04T19:48:23.736Z,23.56
2022-08-04T19:50:55.570Z,23.91
2022-08-04T19:53:37.636Z,23.82
2022-08-04T19:55:54.936Z,24.00
2022-08-04T19:58:26.033Z,24.15
2022-08-04T20:00:55.599Z,24.12
2022-08-04T20:04:08.438Z,24.25
2022-08-04T20:05:55.960Z,24.26
2022-08-04T20:08:27.996Z,24.16
2022-08-04T20:10:57.610Z,24.14
2022-08-04T20:13:37.213Z,24.33
2022-08-04T20:15:59.238Z,24.16
2022-08-04T20:18:55.633Z,24.18
2022-08-04T20:21:04.290Z,23.79
2022-08-04T20:23:47.706Z,23.82
2022-08-04T20:26:05.264Z,23.73
2022-08-04T20:28:38.503Z,23.69
2022-08-04T20:31:07.991Z,23.54
2022-08-04T20:33:36.847Z,23.56
2022-08-04T20:36:06.671Z,23.59
2022-08-04T20:38:35.603Z,23.63
2022-08-04T20:41:05.420Z,23.66
2022-08-04T20:43:34.700Z,23.41
2022-08-04T20:46:18.047Z,23.23
2022-08-04T20:48:36.688Z,23.14
2022-08-04T20:51:05.693Z,22.94
2022-08-04T20:53:52.832Z,22.98
2022-08-04T20:56:05.011Z,22.90
2022-08-04T20:58:35.373Z,22.94
2022-08-04T21:01:05.150Z,22.81
2022-08-04T21:04:00.842Z,23.18
2022-08-04T21:06:23.713Z,23.23
2022-08-04T21:08:57.244Z,23.08
2022-08-04T21:11:23.399Z,23.13
2022-08-04T21:13:52.907Z,23.23
2022-08-04T21:16:53.600Z,23.38
2022-08-04T21:18:52.106Z,23.32
2022-08-04T21:21:20.851Z,23.38
2022-08-04T21:23:51.216Z,23.33
2022-08-04T21:26:25.913Z,23.65
2022-08-04T21:28:54.337Z,23.63
2022-08-04T21:31:23.075Z,23.56
2022-08-04T21:33:52.216Z,23.59
2022-08-04T21:36:21.339Z,23.51
2022-08-04T21:38:51.401Z,23.56
2022-08-04T21:41:25.090Z,23.51
2022-08-04T21:43:51.430Z,23.46
2022-08-04T21:46:20.172Z,23.59
2022-08-04T21:48:49.466Z,23.52
2022-08-04T21:51:22.005Z,23.61
2022-08-04T21:53:53.833Z,23.31
2022-08-04T21:56:26.489Z,23.11
2022-08-04T21:58:51.745Z,23.03
2022-08-04T22:01:50.660Z,23.00
2022-08-04T22:03:57.193Z,22.90
2022-08-04T22:06:28.064Z,22.97
2022-08-04T22:08:53.591Z,22.81
2022-08-04T22:11:48.469Z,22.78
2022-08-04T22:14:11.640Z,23.32
2022-08-04T22:16:34.775Z,22.93
2022-08-04T22:19:04.285Z,23.24
2022-08-04T22:21:39.312Z,23.19
2022-08-04T22:24:05.627Z,23.30
2022-08-04T22:26:36.048Z,23.27
2022-08-04T22:29:06.154Z,23.27
2022-08-04T22:31:55.982Z,23.12
2022-08-04T22:34:05.492Z,23.01
2022-08-04T22:36:34.822Z,22.96
2022-08-04T22:39:07.565Z,23.18
2022-08-04T22:42:03.136Z,22.99
2022-08-04T22:44:06.412Z,23.18
2022-08-04T22:46:36.261Z,23.11
2022-08-04T22:49:05.278Z,23.09
2022-08-04T22:51:34.052Z,23.13
2022-08-04T22:54:12.465Z,23.12
2022-08-04T22:56:37.738Z,23.12
2022-08-04T22:59:04.773Z,23.00
2022-08-04T23:01:58.018Z,22.96
2022-08-04T23:04:09.450Z,22.84
2022-08-04T23:06:39.724Z,22.62
2022-08-04T23:09:11.837Z,22.60
2022-08-04T23:11:43.352Z,22.53
2022-08-04T23:14:11.461Z,22.82
2022-08-04T23:16:42.257Z,22.68
2022-08-04T23:19:15.345Z,22.62
2022-08-04T23:21:47.936Z,22.53
2022-08-04T23:24:13.266Z,22.59
2022-08-04T23:26:42.268Z,22.52
2022-08-04T23:29:12.170Z,22.34
2022-08-04T23:32:00.176Z,22.23
2022-08-04T23:34:12.492Z,22.43
2022-08-04T23:36:41.464Z,22.49
2022-08-04T23:39:12.139Z,22.31
2022-08-04T23:41:55.292Z,22.18
2022-08-04T23:44:12.581Z,22.32
2022-08-04T23:46:42.919Z,22.30
2022-08-04T23:49:16.859Z,22.24
2022-08-04T23:51:44.733Z,22.26
2022-08-04T23:54:15.088Z,22.17
2022-08-04T23:56:44.285Z,22.32
2022-08-04T23:59:17.878Z,22.14
